PORTS® Data Listing: 8771341 Galveston Bay Entrance,

CO-OPS RAW PORTS DATA

************************      PRELIMINARY DATA      ************************** 

     THIS RAW DATA HAS NOT BEEN SUBJECT TO THE NATIONAL OCEAN SERVICE'S        
     QUALITY CONTROL OR QUALITY ASSURANCE PROCEDURES AND DOES NOT MEET         
     THE CRITERIA AND STANDARDS OF OFFICIAL NATIONAL OCEAN SERVICE             
     DATA.  IT IS RELEASED FOR LIMITED PUBLIC USE AS PRELIMINARY DATA TO       
     BE USED ONLY WITH APPROPRIATE CAUTION.                                    

************************      PRELIMINARY DATA      ************************** 


       CD   -   Calendar date
       T    -   Time
       TZ   -   Timezone
       PW   -   Predicted water level (feet above MLLW)
       OW   -   Observed water level (feet above MLLW)
       WS   -   Wind speed (knots)
       WD   -   Wind direction (degrees true)
       WG   -   Wind gust (knots)
       AT   -   Air temperature (degrees farenheit)
       WT   -   Water temperature (degrees farenheit)
       AP   -   Air pressure (millibars)
       SA   -   Salinty (PSU - Practical Salinity Units)
       SG   -   Specific gravity
       RH   -   Relative humidity
       AG   -   Air gap (feet)
       VI   -   Visibility (nautical miles)

       ** NOTE **
       A variable that has its data fields filled with "9"s, indicates that
       data was not collected for that sample period.
       **********


STATION NAME: Galveston Bay Entrance (8771341)
****************************************************************************************************
    CD       T    TZ    PW     OW    WS   WD   WG    AT    WT    AP    SA    SG     RH    AG   VI
****************************************************************************************************
2020/02/18 20:42 CST    0.95   1.89   12  102   13  64.6  61.2 1016.5 -9.9 -9.999 -99.9 -99.99 -9.99
2020/02/18 20:48 CST    0.95   1.88   11  115   13  64.2  61.2 1016.8 -9.9 -9.999 -99.9 -99.99 -9.99
2020/02/18 20:54 CST    0.95   1.89   11  112   12  64.4  61.2 1016.8 -9.9 -9.999 -99.9 -99.99 -9.99
2020/02/18 21:00 CST    0.95   1.88   10  118   12  64.2  61.2 1017.1 -9.9 -9.999 -99.9 -99.99 -9.99
2020/02/18 21:06 CST    0.95   1.87    8  117   10  64.2  61.2 1017.3 -9.9 -9.999 -99.9 -99.99 -9.99
2020/02/18 21:12 CST    0.95   1.87    7  123    9  64.6  61.2 1017.4 -9.9 -9.999 -99.9 -99.99 -9.99
2020/02/18 21:18 CST    0.94   1.85    9  123   10  65.1  61.2 1017.3 -9.9 -9.999 -99.9 -99.99 -9.99
2020/02/18 21:24 CST    0.94   1.86    9  124   10  64.9  61.2 1017.3 -9.9 -9.999 -99.9 -99.99 -9.99
2020/02/18 21:30 CST    0.94   1.87    9  125    9  64.9  61.2 1017.3 -9.9 -9.999 -99.9 -99.99 -9.99
2020/02/18 21:36 CST    0.94   1.88    9  123   10  65.1  61.2 1017.1 -9.9 -9.999 -99.9 -99.99 -9.99
2020/02/18 21:42 CST    0.94   1.89   10  123   11  64.6  61.2 1017.0 -9.9 -9.999 -99.9 -99.99 -9.99
2020/02/18 21:48 CST    0.94   1.89    9  122   10  64.6  61.2 1017.2 -9.9 -9.999 -99.9 -99.99 -9.99
2020/02/18 21:54 CST    0.94   1.91    8  127    9  64.6  61.2 1017.4 -9.9 -9.999 -99.9 -99.99 -9.99
2020/02/18 22:00 CST    0.93   1.94    7  124    8  64.8  61.2 1017.5 -9.9 -9.999 -99.9 -99.99 -9.99
2020/02/18 22:06 CST    0.93   1.89    4  120    6  64.6  61.2 1017.6 -9.9 -9.999 -99.9 -99.99 -9.99
2020/02/18 22:12 CST    0.93   1.90    4  111    4  64.6  61.2 1017.6 -9.9 -9.999 -99.9 -99.99 -9.99
2020/02/18 22:18 CST    0.92   1.88    4  102    5  64.8  61.2 1017.6 -9.9 -9.999 -99.9 -99.99 -9.99
2020/02/18 22:24 CST    0.92   1.87    3  104    4  64.6  61.2 1017.7 -9.9 -9.999 -99.9 -99.99 -9.99
2020/02/18 22:30 CST    0.92   1.88    4  119    4  64.9  61.2 1017.8 -9.9 -9.999 -99.9 -99.99 -9.99
2020/02/18 22:36 CST    0.91   1.88    3  112    4  64.6  61.2 1017.9 -9.9 -9.999 -99.9 -99.99 -9.99
2020/02/18 22:42 CST    0.91   1.85    2   32    2  64.4  61.2 1018.0 -9.9 -9.999 -99.9 -99.99 -9.99
2020/02/18 22:48 CST    0.90   1.83    2  103    2  64.9  61.2 1018.0 -9.9 -9.999 -99.9 -99.99 -9.99
2020/02/18 22:54 CST    0.90   1.84    4  112    4  64.8  61.2 1017.8 -9.9 -9.999 -99.9 -99.99 -9.99
2020/02/18 23:00 CST    0.89   1.84    4  116    4  64.8  61.2 1018.0 -9.9 -9.999 -99.9 -99.99 -9.99
2020/02/18 23:06 CST    0.89   1.85    3   96    4  64.8  61.2 1018.0 -9.9 -9.999 -99.9 -99.99 -9.99
2020/02/18 23:12 CST    0.88   1.81    2   91    3  64.6  61.2 1018.1 -9.9 -9.999 -99.9 -99.99 -9.99
2020/02/18 23:18 CST    0.87   1.80    2   35    2  64.4  61.2 1018.2 -9.9 -9.999 -99.9 -99.99 -9.99
2020/02/18 23:24 CST    0.87   1.81    2   31    3  64.6  61.2 1018.3 -9.9 -9.999 -99.9 -99.99 -9.99
2020/02/18 23:30 CST    0.86   1.80    6  332    6  65.1  61.2 1018.4 -9.9 -9.999 -99.9 -99.99 -9.99
2020/02/18 23:36 CST    0.85   1.78    4  335    6  65.5  61.2 1018.3 -9.9 -9.999 -99.9 -99.99 -9.99
2020/02/18 23:42 CST    0.84   1.77    3   11    4  66.0  61.2 1018.3 -9.9 -9.999 -99.9 -99.99 -9.99
2020/02/18 23:48 CST    0.83   1.76    7  357    8  65.7  61.2 1018.4 -9.9 -9.999 -99.9 -99.99 -9.99
2020/02/18 23:54 CST    0.82   1.76    7  344    9  65.5  61.2 1018.4 -9.9 -9.999 -99.9 -99.99 -9.99
2020/02/19 00:00 CST    0.81   1.77    7    7   10  65.3  61.2 1018.4 -9.9 -9.999 -99.9 -99.99 -9.99
2020/02/19 00:06 CST    0.80   1.75    7   12    8  65.1  61.2 1018.4 -9.9 -9.999 -99.9 -99.99 -9.99
2020/02/19 00:12 CST    0.79   1.72    7   10    7  65.3  61.2 1018.4 -9.9 -9.999 -99.9 -99.99 -9.99
2020/02/19 00:18 CST    0.77   1.72    6   23    7  65.5  61.2 1018.3 -9.9 -9.999 -99.9 -99.99 -9.99
2020/02/19 00:24 CST    0.76   1.70    7   21    7  65.8  61.2 1018.4 -9.9 -9.999 -99.9 -99.99 -9.99
2020/02/19 00:30 CST    0.74   1.68    8   30    8  66.4  61.3 1018.4 -9.9 -9.999 -99.9 -99.99 -9.99
2020/02/19 00:36 CST    0.73   1.65    8   32    8  66.6  61.3 1018.3 -9.9 -9.999 -99.9 -99.99 -9.99
2020/02/19 00:42 CST    0.71   1.61    8   35    8  67.1  61.3 1018.4 -9.9 -9.999 -99.9 -99.99 -9.99
2020/02/19 00:48 CST    0.69   1.61    6   25    8  66.9  61.3 1018.5 -9.9 -9.999 -99.9 -99.99 -9.99
2020/02/19 00:54 CST    0.67   1.59    5    0    6  66.7  61.3 1018.7 -9.9 -9.999 -99.9 -99.99 -9.99
2020/02/19 01:00 CST    0.65   1.57    6  333    7  66.6  61.3 1018.8 -9.9 -9.999 -99.9 -99.99 -9.99
2020/02/19 01:06 CST    0.63   1.54   11  344   12  64.2  61.3 1018.8 -9.9 -9.999 -99.9 -99.99 -9.99
2020/02/19 01:12 CST    0.61   1.51    9  346   11  63.5  61.3 1018.9 -9.9 -9.999 -99.9 -99.99 -9.99
2020/02/19 01:18 CST    0.58   1.47   10  357   11  62.6  61.3 1018.8 -9.9 -9.999 -99.9 -99.99 -9.99
2020/02/19 01:24 CST    0.56   1.44   10  359   11  62.4  61.3 1018.7 -9.9 -9.999 -99.9 -99.99 -9.99
2020/02/19 01:30 CST    0.53   1.42   11  356   13  62.2  61.3 1018.6 -9.9 -9.999 -99.9 -99.99 -9.99
2020/02/19 01:36 CST    0.51   1.39   12  350   13  62.1  61.3 1018.8 -9.9 -9.999 -99.9 -99.99 -9.99
2020/02/19 01:42 CST    0.48   1.36   12  347   14  61.9  61.3 1018.8 -9.9 -9.999 -99.9 -99.99 -9.99
2020/02/19 01:48 CST    0.45   1.34   11  350   14  61.9  61.5 1018.7 -9.9 -9.999 -99.9 -99.99 -9.99
2020/02/19 01:54 CST    0.42   1.31   13  350   16  61.9  61.5 1018.7 -9.9 -9.999 -99.9 -99.99 -9.99
2020/02/19 02:00 CST    0.39   1.29   13  355   15  62.1  61.5 1018.6 -9.9 -9.999 -99.9 -99.99 -9.99
2020/02/19 02:06 CST    0.36   1.26   13    0   16  62.2  61.5 1018.5 -9.9 -9.999 -99.9 -99.99 -9.99
2020/02/19 02:12 CST    0.33   1.22   14    2   16  63.0  61.5 1018.5 -9.9 -9.999 -99.9 -99.99 -9.99
2020/02/19 02:18 CST    0.29   1.18   13    9   15  63.1  61.5 1018.2 -9.9 -9.999 -99.9 -99.99 -9.99
2020/02/19 02:24 CST    0.26   1.16   14   11   16  63.3  61.5 1018.2 -9.9 -9.999 -99.9 -99.99 -9.99
2020/02/19 02:30 CST    0.23   1.13   13   13   15  63.3  61.5 1018.2 -9.9 -9.999 -99.9 -99.99 -9.99
2020/02/19 02:36 CST    0.19   1.08   11   19   14  63.3  61.5 1018.2 -9.9 -9.999 -99.9 -99.99 -9.99
2020/02/19 02:42 CST    0.16   1.02   10   19   12  63.3  61.5 1018.2 -9.9 -9.999 -99.9 -99.99 -9.99
2020/02/19 02:48 CST    0.12   0.98    9   23   11  63.5  61.5 1018.2 -9.9 -9.999 -99.9 -99.99 -9.99
2020/02/19 02:54 CST    0.09   0.96    9   22   10  63.7  61.5 1018.5 -9.9 -9.999 -99.9 -99.99 -9.99
2020/02/19 03:00 CST    0.06   0.90    9    1   11  63.7  61.7 1018.6 -9.9 -9.999 -99.9 -99.99 -9.99
2020/02/19 03:06 CST    0.02   0.83    9    1   11  63.7  61.7 1018.6 -9.9 -9.999 -99.9 -99.99 -9.99
2020/02/19 03:12 CST   -0.01   0.80   11   14   12  63.9  61.7 1018.5 -9.9 -9.999 -99.9 -99.99 -9.99
2020/02/19 03:18 CST   -0.05   0.74   12   18   14  64.0  61.7 1018.5 -9.9 -9.999 -99.9 -99.99 -9.99
2020/02/19 03:24 CST   -0.08   0.68   10   27   12  63.9  61.7 1018.4 -9.9 -9.999 -99.9 -99.99 -9.99
2020/02/19 03:30 CST   -0.11   0.63   11   30   13  64.0  61.7 1018.4 -9.9 -9.999 -99.9 -99.99 -9.99
2020/02/19 03:36 CST   -0.14   0.59   11   41   12  64.0  61.9 1018.3 -9.9 -9.999 -99.9 -99.99 -9.99
2020/02/19 03:42 CST   -0.18   0.56   13   43   14  64.0  61.9 1018.2 -9.9 -9.999 -99.9 -99.99 -9.99
2020/02/19 03:48 CST   -0.21   0.54   13   38   16  64.0  61.9 1018.4 -9.9 -9.999 -99.9 -99.99 -9.99
2020/02/19 03:54 CST   -0.24   0.49   13   31   15  64.2  61.9 1018.5 -9.9 -9.999 -99.9 -99.99 -9.99
2020/02/19 04:00 CST   -0.27   0.44   13   22   15  64.4  61.9 1018.6 -9.9 -9.999 -99.9 -99.99 -9.99
2020/02/19 04:06 CST   -0.29   0.39   12   25   14  64.4  61.9 1018.6 -9.9 -9.999 -99.9 -99.99 -9.99
2020/02/19 04:12 CST   -0.32   0.38   12   31   14  64.2  61.9 1018.6 -9.9 -9.999 -99.9 -99.99 -9.99
2020/02/19 04:18 CST   -0.35   0.34   11   34   14  64.2  61.9 1018.7 -9.9 -9.999 -99.9 -99.99 -9.99
2020/02/19 04:24 CST   -0.38   0.32   11   37   13  64.2  61.9 1018.8 -9.9 -9.999 -99.9 -99.99 -9.99
2020/02/19 04:30 CST   -0.40   0.29   12   35   14  64.2  62.1 1018.9 -9.9 -9.999 -99.9 -99.99 -9.99
2020/02/19 04:36 CST   -0.43   0.27   12   37   15  64.0  62.1 1018.9 -9.9 -9.999 -99.9 -99.99 -9.99
2020/02/19 04:42 CST   -0.45   0.22   13   34   15  64.0  62.1 1019.0 -9.9 -9.999 -99.9 -99.99 -9.99
2020/02/19 04:48 CST   -0.47   0.19   13   32   15  63.9  62.1 1018.9 -9.9 -9.999 -99.9 -99.99 -9.99
2020/02/19 04:54 CST   -0.49   0.17   14   36   16  63.7  62.1 1018.8 -9.9 -9.999 -99.9 -99.99 -9.99
2020/02/19 05:00 CST   -0.52   0.10   14   35   16  63.3  62.1 1019.0 -9.9 -9.999 -99.9 -99.99 -9.99
2020/02/19 05:06 CST   -0.54   0.07   13   30   15  63.0  62.1 1018.9 -9.9 -9.999 -99.9 -99.99 -9.99
2020/02/19 05:12 CST   -0.55   0.09   13   34   15  62.6  62.1 1019.0 -9.9 -9.999 -99.9 -99.99 -9.99
2020/02/19 05:18 CST   -0.57   0.11   13   40   15  62.2  62.1 1019.0 -9.9 -9.999 -99.9 -99.99 -9.99
2020/02/19 05:24 CST   -0.59   0.09   14   40   16  62.1  62.1 1019.1 -9.9 -9.999 -99.9 -99.99 -9.99
2020/02/19 05:30 CST   -0.60   0.09   16   41   17  61.7  62.1 1019.1 -9.9 -9.999 -99.9 -99.99 -9.99
2020/02/19 05:36 CST   -0.62   0.11   13   40   16  61.5  62.1 1019.1 -9.9 -9.999 -99.9 -99.99 -9.99
2020/02/19 05:42 CST   -0.63   0.12   15   46   16  61.2  62.1 1019.1 -9.9 -9.999 -99.9 -99.99 -9.99
2020/02/19 05:48 CST   -0.64   0.08   13   41   16  61.2  62.1 1019.2 -9.9 -9.999 -99.9 -99.99 -9.99
2020/02/19 05:54 CST   -0.65   0.08   16   41   18  60.8  62.1 1019.3 -9.9 -9.999 -99.9 -99.99 -9.99
2020/02/19 06:00 CST   -0.66   0.06   17   37   17  60.8  62.1 1019.3 -9.9 -9.999 -99.9 -99.99 -9.99
2020/02/19 06:06 CST   -0.67   0.07   14   31   17  60.8  62.1 1019.5 -9.9 -9.999 -99.9 -99.99 -9.99
2020/02/19 06:12 CST   -0.68   0.11   16   29   18  60.6  62.1 1019.6 -9.9 -9.999 -99.9 -99.99 -9.99
2020/02/19 06:18 CST   -0.68   0.09   16   27   17  60.6  62.1 1019.8 -9.9 -9.999 -99.9 -99.99 -9.99
2020/02/19 06:24 CST   -0.69   0.11   16   25   19  60.4  62.1 1019.9 -9.9 -9.999 -99.9 -99.99 -9.99
2020/02/19 06:30 CST   -0.69   0.09   17   35   18  60.4  61.9 1019.9 -9.9 -9.999 -99.9 -99.99 -9.99
2020/02/19 06:36 CST   -0.69   0.11   16   33   17  60.3  61.9 1020.0 -9.9 -9.999 -99.9 -99.99 -9.99
2020/02/19 06:42 CST   -0.69   0.12   15   29   17  60.3  61.9 1020.1 -9.9 -9.999 -99.9 -99.99 -9.99
2020/02/19 06:48 CST   -0.69   0.11   15   33   18  60.1  61.9 1020.1 -9.9 -9.999 -99.9 -99.99 -9.99
2020/02/19 06:54 CST   -0.69   0.10   15   30   16  59.9  61.9 1020.3 -9.9 -9.999 -99.9 -99.99 -9.99
2020/02/19 07:00 CST   -0.69   0.09   14   26   16  59.9  61.9 1020.4 -9.9 -9.999 -99.9 -99.99 -9.99
2020/02/19 07:06 CST   -0.68   0.13   16   29   17  59.5  61.9 1020.4 -9.9 -9.999 -99.9 -99.99 -9.99
2020/02/19 07:12 CST   -0.67   0.11   14   27   17  59.7  61.9 1020.5 -9.9 -9.999 -99.9 -99.99 -9.99
2020/02/19 07:18 CST   -0.66   0.16   16   27   17  59.2  61.9 1020.7 -9.9 -9.999 -99.9 -99.99 -9.99
2020/02/19 07:24 CST   -0.65   0.15   16   24   17  59.4  61.9 1020.7 -9.9 -9.999 -99.9 -99.99 -9.99
2020/02/19 07:30 CST   -0.64   0.18   15   31   18  59.2  61.9 1020.7 -9.9 -9.999 -99.9 -99.99 -9.99
2020/02/19 07:36 CST   -0.63   0.15   14   35   17  59.2  61.9 1020.8 -9.9 -9.999 -99.9 -99.99 -9.99
2020/02/19 07:42 CST   -0.61   0.19   17   33   19  59.0  61.9 1020.8 -9.9 -9.999 -99.9 -99.99 -9.99
2020/02/19 07:48 CST   -0.60   0.16   16   31   18  59.0  61.7 1020.9 -9.9 -9.999 -99.9 -99.99 -9.99
2020/02/19 07:54 CST   -0.58   0.17   16   29   18  59.0  61.7 1020.9 -9.9 -9.999 -99.9 -99.99 -9.99
2020/02/19 08:00 CST   -0.56   0.18   16   27   19  58.8  61.7 1021.1 -9.9 -9.999 -99.9 -99.99 -9.99
2020/02/19 08:06 CST   -0.54   0.21   17   23   19  58.6  61.7 1021.2 -9.9 -9.999 -99.9 -99.99 -9.99
2020/02/19 08:12 CST   -0.52   0.23   18   26   20  58.5  61.7 1021.2 -9.9 -9.999 -99.9 -99.99 -9.99
2020/02/19 08:18 CST   -0.50   0.24   16   30   19  58.6  61.7 1021.3 -9.9 -9.999 -99.9 -99.99 -9.99
2020/02/19 08:24 CST   -0.47   0.28   17   24   19  58.6  61.7 1021.4 -9.9 -9.999 -99.9 -99.99 -9.99
2020/02/19 08:30 CST   -0.45   0.30   17   24   19  58.5  61.7 1021.5 -9.9 -9.999 -99.9 -99.99 -9.99
2020/02/19 08:36 CST   -0.42   0.33   19   34   21  58.5  61.7 1021.6 -9.9 -9.999 -99.9 -99.99 -9.99
2020/02/19 08:42 CST   -0.40   0.34   13   35   19  58.8  61.7 1021.8 -9.9 -9.999 -99.9 -99.99 -9.99
2020/02/19 08:48 CST   -0.37   0.37   16   29   18  58.3  61.7 1021.8 -9.9 -9.999 -99.9 -99.99 -9.99
2020/02/19 08:54 CST   -0.34   0.37   17   26   18  58.1  61.7 1021.8 -9.9 -9.999 -99.9 -99.99 -9.99
2020/02/19 09:00 CST   -0.31   0.37   17   34   19  58.3  61.7 1021.9 -9.9 -9.999 -99.9 -99.99 -9.99
2020/02/19 09:06 CST   -0.28   0.40   17   34   19  58.3  61.7 1022.0 -9.9 -9.999 -99.9 -99.99 -9.99
2020/02/19 09:12 CST   -0.25   0.41   16   31   19  58.3  61.7 1022.0 -9.9 -9.999 -99.9 -99.99 -9.99
2020/02/19 09:18 CST   -0.22   0.41   17   31   19  57.9  61.7 1021.9 -9.9 -9.999 -99.9 -99.99 -9.99
2020/02/19 09:24 CST   -0.19   0.47   17   36   18  57.9  61.7 1021.9 -9.9 -9.999 -99.9 -99.99 -9.99
2020/02/19 09:30 CST   -0.16   0.51   16   40   19  58.3  61.7 1022.0 -9.9 -9.999 -99.9 -99.99 -9.99
2020/02/19 09:36 CST   -0.13   0.53   15   44   18  58.3  61.7 1021.9 -9.9 -9.999 -99.9 -99.99 -9.99
2020/02/19 09:42 CST   -0.10   0.57   17   45   19  57.7  61.7 1022.0 -9.9 -9.999 -99.9 -99.99 -9.99
2020/02/19 09:48 CST   -0.06   0.62   15   45   17  58.1  61.7 1022.0 -9.9 -9.999 -99.9 -99.99 -9.99
2020/02/19 09:54 CST   -0.03   0.66   15   43   16  58.1  61.7 1022.1 -9.9 -9.999 -99.9 -99.99 -9.99
2020/02/19 10:00 CST    0.01   0.71   15   48   18  58.5  61.7 1022.2 -9.9 -9.999 -99.9 -99.99 -9.99
2020/02/19 10:06 CST    0.04   0.69   16   46   18  58.5  61.9 1022.3 -9.9 -9.999 -99.9 -99.99 -9.99
2020/02/19 10:12 CST    0.07   0.75   16   53   18  58.3  61.9 1022.3 -9.9 -9.999 -99.9 -99.99 -9.99
2020/02/19 10:18 CST    0.11   0.80   15   47   17  58.5  61.9 1022.4 -9.9 -9.999 -99.9 -99.99 -9.99
2020/02/19 10:24 CST    0.14   0.83   14   46   16  58.6  61.9 1022.5 -9.9 -9.999 -99.9 -99.99 -9.99
2020/02/19 10:30 CST    0.18   0.88   15   48   17  58.5  61.9 1022.6 -9.9 -9.999 -99.9 -99.99 -9.99
2020/02/19 10:36 CST    0.21   0.97   13   47   15  58.6  62.1 1022.6 -9.9 -9.999 -99.9 -99.99 -9.99
2020/02/19 10:42 CST    0.25   1.00   13   45   15  58.6  62.1 1022.5 -9.9 -9.999 -99.9 -99.99 -9.99
2020/02/19 10:48 CST    0.28   1.08   14   50   15  58.6  61.9 1022.5 -9.9 -9.999 -99.9 -99.99 -9.99
2020/02/19 10:54 CST    0.32   1.13   15   53   17  58.6  61.9 1022.4 -9.9 -9.999 -99.9 -99.99 -9.99
2020/02/19 11:00 CST    0.35   1.16   15   53   17  58.6  61.9 1022.3 -9.9 -9.999 -99.9 -99.99 -9.99
2020/02/19 11:06 CST    0.39   1.21   15   60   17  59.0  62.1 1022.3 -9.9 -9.999 -99.9 -99.99 -9.99
2020/02/19 11:12 CST    0.42   1.20   15   52   17  59.0  62.1 1022.3 -9.9 -9.999 -99.9 -99.99 -9.99
2020/02/19 11:18 CST    0.46   1.17   15   49   17  58.8  62.2 1022.4 -9.9 -9.999 -99.9 -99.99 -9.99
2020/02/19 11:24 CST    0.49   1.25   15   48   17  58.6  62.2 1022.3 -9.9 -9.999 -99.9 -99.99 -9.99
2020/02/19 11:30 CST    0.53   1.30   14   53   16  58.8  62.4 1022.3 -9.9 -9.999 -99.9 -99.99 -9.99
2020/02/19 11:36 CST    0.57   1.36   15   55   16  58.8  62.6 1022.3 -9.9 -9.999 -99.9 -99.99 -9.99
2020/02/19 11:42 CST    0.60   1.40   14   50   15  59.2  62.6 1022.2 -9.9 -9.999 -99.9 -99.99 -9.99
2020/02/19 11:48 CST    0.63   1.45   13   45   16  59.0  62.8 1022.1 -9.9 -9.999 -99.9 -99.99 -9.99
2020/02/19 11:54 CST    0.67   1.51   14   58   16  59.4  62.6 1022.0 -9.9 -9.999 -99.9 -99.99 -9.99
2020/02/19 12:00 CST    0.70   1.53   12   55   16  59.4  62.6 1021.9 -9.9 -9.999 -99.9 -99.99 -9.99
2020/02/19 12:06 CST    0.74   1.60   13   56   15  59.4  62.6 1021.8 -9.9 -9.999 -99.9 -99.99 -9.99
2020/02/19 12:12 CST    0.77   1.61   13   53   15  59.4  62.6 1021.7 -9.9 -9.999 -99.9 -99.99 -9.99
2020/02/19 12:18 CST    0.80   1.61   13   58   15  59.2  62.6 1021.7 -9.9 -9.999 -99.9 -99.99 -9.99
2020/02/19 12:24 CST    0.84   1.65   14   57   16  59.4  62.8 1021.6 -9.9 -9.999 -99.9 -99.99 -9.99
2020/02/19 12:30 CST    0.87   1.68   14   59   16  59.5  62.8 1021.5 -9.9 -9.999 -99.9 -99.99 -9.99
2020/02/19 12:36 CST    0.90   1.72   13   66   15  59.5  62.8 1021.4 -9.9 -9.999 -99.9 -99.99 -9.99
2020/02/19 12:42 CST    0.93   1.76   13   61   15  59.5  62.8 1021.3 -9.9 -9.999 -99.9 -99.99 -9.99
2020/02/19 12:48 CST    0.96   1.76   13   58   15  59.4  62.8 1021.3 -9.9 -9.999 -99.9 -99.99 -9.99
2020/02/19 12:54 CST    0.99   1.78   12   60   14  59.4  62.8 1021.2 -9.9 -9.999 -99.9 -99.99 -9.99
2020/02/19 13:00 CST    1.01   1.79   12   53   13  59.4  62.8 1021.1 -9.9 -9.999 -99.9 -99.99 -9.99
2020/02/19 13:06 CST    1.04   1.80   12   59   14  59.4  63.0 1021.1 -9.9 -9.999 -99.9 -99.99 -9.99
2020/02/19 13:12 CST    1.07   1.80   11   60   13  59.4  63.0 1021.1 -9.9 -9.999 -99.9 -99.99 -9.99
2020/02/19 13:18 CST    1.09   1.81   11   67   13  59.5  63.0 1021.0 -9.9 -9.999 -99.9 -99.99 -9.99
2020/02/19 13:24 CST    1.11   1.84   11   63   12  59.5  63.0 1020.9 -9.9 -9.999 -99.9 -99.99 -9.99
2020/02/19 13:30 CST    1.14   1.86   11   62   13  59.5  63.0 1020.8 -9.9 -9.999 -99.9 -99.99 -9.99
2020/02/19 13:36 CST    1.16   1.87   11   64   12  59.5  63.0 1020.8 -9.9 -9.999 -99.9 -99.99 -9.99
2020/02/19 13:42 CST    1.18   1.81   11   67   12  59.5  63.0 1020.7 -9.9 -9.999 -99.9 -99.99 -9.99
2020/02/19 13:48 CST    1.19   1.89   10   64   12  59.5  63.0 1020.6 -9.9 -9.999 -99.9 -99.99 -9.99
2020/02/19 13:54 CST    1.21   1.91   11   60   12  59.7  63.0 1020.5 -9.9 -9.999 -99.9 -99.99 -9.99
2020/02/19 14:00 CST    1.23   1.93   12   63   13  59.7  63.0 1020.3 -9.9 -9.999 -99.9 -99.99 -9.99
2020/02/19 14:06 CST    1.24   1.90   12   67   13  59.9  62.8 1020.2 -9.9 -9.999 -99.9 -99.99 -9.99
2020/02/19 14:12 CST    1.25   1.93   12   74   14  59.9  62.8 1020.0 -9.9 -9.999 -99.9 -99.99 -9.99
2020/02/19 14:18 CST    1.27   1.95   13   73   14  59.9  62.8 1019.9 -9.9 -9.999 -99.9 -99.99 -9.99
2020/02/19 14:24 CST    1.28   1.94   13   71   15  60.1  62.6 1019.8 -9.9 -9.999 -99.9 -99.99 -9.99
2020/02/19 14:30 CST    1.29 -99.99 -999 -999 -999 -99.9 -99.9 -999.9 -9.9 -9.999 -99.9 -99.99 -9.99
2020/02/19 14:36 CST    1.29 -99.99 -999 -999 -999 -99.9 -99.9 -999.9 -9.9 -9.999 -99.9 -99.99 -9.99
2020/02/19 14:42 CST    1.30 -99.99 -999 -999 -999 -99.9 -99.9 -999.9 -9.9 -9.999 -99.9 -99.99 -9.99
2020/02/19 14:48 CST    1.31 -99.99 -999 -999 -999 -99.9 -99.9 -999.9 -9.9 -9.999 -99.9 -99.99 -9.99
2020/02/19 14:54 CST    1.31 -99.99 -999 -999 -999 -99.9 -99.9 -999.9 -9.9 -9.999 -99.9 -99.99 -9.99
2020/02/19 15:00 CST    1.32 -99.99 -999 -999 -999 -99.9 -99.9 -999.9 -9.9 -9.999 -99.9 -99.99 -9.99
2020/02/19 15:06 CST    1.32 -99.99 -999 -999 -999 -99.9 -99.9 -999.9 -9.9 -9.999 -99.9 -99.99 -9.99
2020/02/19 15:12 CST    1.32 -99.99 -999 -999 -999 -99.9 -99.9 -999.9 -9.9 -9.999 -99.9 -99.99 -9.99
2020/02/19 15:18 CST    1.32 -99.99 -999 -999 -999 -99.9 -99.9 -999.9 -9.9 -9.999 -99.9 -99.99 -9.99
2020/02/19 15:24 CST    1.33 -99.99 -999 -999 -999 -99.9 -99.9 -999.9 -9.9 -9.999 -99.9 -99.99 -9.99
2020/02/19 15:30 CST    1.33 -99.99 -999 -999 -999 -99.9 -99.9 -999.9 -9.9 -9.999 -99.9 -99.99 -9.99
2020/02/19 15:36 CST    1.32 -99.99 -999 -999 -999 -99.9 -99.9 -999.9 -9.9 -9.999 -99.9 -99.99 -9.99
2020/02/19 15:42 CST    1.32 -99.99 -999 -999 -999 -99.9 -99.9 -999.9 -9.9 -9.999 -99.9 -99.99 -9.99
2020/02/19 15:48 CST    1.32 -99.99 -999 -999 -999 -99.9 -99.9 -999.9 -9.9 -9.999 -99.9 -99.99 -9.99
2020/02/19 15:54 CST    1.32 -99.99 -999 -999 -999 -99.9 -99.9 -999.9 -9.9 -9.999 -99.9 -99.99 -9.99
2020/02/19 16:00 CST    1.31 -99.99 -999 -999 -999 -99.9 -99.9 -999.9 -9.9 -9.999 -99.9 -99.99 -9.99
2020/02/19 16:06 CST    1.31 -99.99 -999 -999 -999 -99.9 -99.9 -999.9 -9.9 -9.999 -99.9 -99.99 -9.99
2020/02/19 16:12 CST    1.31 -99.99 -999 -999 -999 -99.9 -99.9 -999.9 -9.9 -9.999 -99.9 -99.99 -9.99
2020/02/19 16:18 CST    1.30 -99.99 -999 -999 -999 -99.9 -99.9 -999.9 -9.9 -9.999 -99.9 -99.99 -9.99
2020/02/19 16:24 CST    1.30 -99.99 -999 -999 -999 -99.9 -99.9 -999.9 -9.9 -9.999 -99.9 -99.99 -9.99
2020/02/19 16:30 CST    1.29 -99.99 -999 -999 -999 -99.9 -99.9 -999.9 -9.9 -9.999 -99.9 -99.99 -9.99
2020/02/19 16:36 CST    1.28 -99.99 -999 -999 -999 -99.9 -99.9 -999.9 -9.9 -9.999 -99.9 -99.99 -9.99
2020/02/19 16:42 CST    1.28 -99.99 -999 -999 -999 -99.9 -99.9 -999.9 -9.9 -9.999 -99.9 -99.99 -9.99
2020/02/19 16:48 CST    1.27 -99.99 -999 -999 -999 -99.9 -99.9 -999.9 -9.9 -9.999 -99.9 -99.99 -9.99
2020/02/19 16:54 CST    1.26 -99.99 -999 -999 -999 -99.9 -99.9 -999.9 -9.9 -9.999 -99.9 -99.99 -9.99
2020/02/19 17:00 CST    1.25 -99.99 -999 -999 -999 -99.9 -99.9 -999.9 -9.9 -9.999 -99.9 -99.99 -9.99
2020/02/19 17:06 CST    1.25 -99.99 -999 -999 -999 -99.9 -99.9 -999.9 -9.9 -9.999 -99.9 -99.99 -9.99
2020/02/19 17:12 CST    1.24 -99.99 -999 -999 -999 -99.9 -99.9 -999.9 -9.9 -9.999 -99.9 -99.99 -9.99
2020/02/19 17:18 CST    1.23 -99.99 -999 -999 -999 -99.9 -99.9 -999.9 -9.9 -9.999 -99.9 -99.99 -9.99
2020/02/19 17:24 CST    1.22 -99.99 -999 -999 -999 -99.9 -99.9 -999.9 -9.9 -9.999 -99.9 -99.99 -9.99
2020/02/19 17:30 CST    1.21 -99.99 -999 -999 -999 -99.9 -99.9 -999.9 -9.9 -9.999 -99.9 -99.99 -9.99
2020/02/19 17:36 CST    1.20 -99.99 -999 -999 -999 -99.9 -99.9 -999.9 -9.9 -9.999 -99.9 -99.99 -9.99
2020/02/19 17:42 CST    1.19 -99.99 -999 -999 -999 -99.9 -99.9 -999.9 -9.9 -9.999 -99.9 -99.99 -9.99
2020/02/19 17:48 CST    1.18 -99.99 -999 -999 -999 -99.9 -99.9 -999.9 -9.9 -9.999 -99.9 -99.99 -9.99
2020/02/19 17:54 CST    1.17 -99.99 -999 -999 -999 -99.9 -99.9 -999.9 -9.9 -9.999 -99.9 -99.99 -9.99
2020/02/19 18:00 CST    1.16 -99.99 -999 -999 -999 -99.9 -99.9 -999.9 -9.9 -9.999 -99.9 -99.99 -9.99
2020/02/19 18:06 CST    1.15 -99.99 -999 -999 -999 -99.9 -99.9 -999.9 -9.9 -9.999 -99.9 -99.99 -9.99
2020/02/19 18:12 CST    1.14 -99.99 -999 -999 -999 -99.9 -99.9 -999.9 -9.9 -9.999 -99.9 -99.99 -9.99
2020/02/19 18:18 CST    1.13 -99.99 -999 -999 -999 -99.9 -99.9 -999.9 -9.9 -9.999 -99.9 -99.99 -9.99
2020/02/19 18:24 CST    1.12 -99.99 -999 -999 -999 -99.9 -99.9 -999.9 -9.9 -9.999 -99.9 -99.99 -9.99
2020/02/19 18:30 CST    1.11 -99.99 -999 -999 -999 -99.9 -99.9 -999.9 -9.9 -9.999 -99.9 -99.99 -9.99
2020/02/19 18:36 CST    1.10 -99.99 -999 -999 -999 -99.9 -99.9 -999.9 -9.9 -9.999 -99.9 -99.99 -9.99
2020/02/19 18:42 CST    1.09 -99.99 -999 -999 -999 -99.9 -99.9 -999.9 -9.9 -9.999 -99.9 -99.99 -9.99
2020/02/19 18:48 CST    1.07 -99.99 -999 -999 -999 -99.9 -99.9 -999.9 -9.9 -9.999 -99.9 -99.99 -9.99
2020/02/19 18:54 CST    1.07 -99.99 -999 -999 -999 -99.9 -99.9 -999.9 -9.9 -9.999 -99.9 -99.99 -9.99
2020/02/19 19:00 CST    1.06 -99.99 -999 -999 -999 -99.9 -99.9 -999.9 -9.9 -9.999 -99.9 -99.99 -9.99
2020/02/19 19:06 CST    1.05 -99.99 -999 -999 -999 -99.9 -99.9 -999.9 -9.9 -9.999 -99.9 -99.99 -9.99
2020/02/19 19:12 CST    1.04 -99.99 -999 -999 -999 -99.9 -99.9 -999.9 -9.9 -9.999 -99.9 -99.99 -9.99
2020/02/19 19:18 CST    1.03 -99.99 -999 -999 -999 -99.9 -99.9 -999.9 -9.9 -9.999 -99.9 -99.99 -9.99
2020/02/19 19:24 CST    1.02 -99.99 -999 -999 -999 -99.9 -99.9 -999.9 -9.9 -9.999 -99.9 -99.99 -9.99
2020/02/19 19:30 CST    1.01 -99.99 -999 -999 -999 -99.9 -99.9 -999.9 -9.9 -9.999 -99.9 -99.99 -9.99
2020/02/19 19:36 CST    1.00 -99.99 -999 -999 -999 -99.9 -99.9 -999.9 -9.9 -9.999 -99.9 -99.99 -9.99
2020/02/19 19:42 CST    1.00 -99.99 -999 -999 -999 -99.9 -99.9 -999.9 -9.9 -9.999 -99.9 -99.99 -9.99
2020/02/19 19:48 CST    0.99 -99.99 -999 -999 -999 -99.9 -99.9 -999.9 -9.9 -9.999 -99.9 -99.99 -9.99
2020/02/19 19:54 CST    0.98 -99.99 -999 -999 -999 -99.9 -99.9 -999.9 -9.9 -9.999 -99.9 -99.99 -9.99
2020/02/19 20:00 CST    0.98 -99.99 -999 -999 -999 -99.9 -99.9 -999.9 -9.9 -9.999 -99.9 -99.99 -9.99
2020/02/19 20:06 CST    0.97 -99.99 -999 -999 -999 -99.9 -99.9 -999.9 -9.9 -9.999 -99.9 -99.99 -9.99
2020/02/19 20:12 CST    0.97 -99.99 -999 -999 -999 -99.9 -99.9 -999.9 -9.9 -9.999 -99.9 -99.99 -9.99
2020/02/19 20:18 CST    0.96 -99.99 -999 -999 -999 -99.9 -99.9 -999.9 -9.9 -9.999 -99.9 -99.99 -9.99
2020/02/19 20:24 CST    0.96 -99.99 -999 -999 -999 -99.9 -99.9 -999.9 -9.9 -9.999 -99.9 -99.99 -9.99
2020/02/19 20:30 CST    0.96 -99.99 -999 -999 -999 -99.9 -99.9 -999.9 -9.9 -9.999 -99.9 -99.99 -9.99
2020/02/19 20:36 CST    0.95 -99.99 -999 -999 -999 -99.9 -99.9 -999.9 -9.9 -9.999 -99.9 -99.99 -9.99
2020/02/19 20:42 CST    0.95 -99.99 -999 -999 -999 -99.9 -99.9 -999.9 -9.9 -9.999 -99.9 -99.99 -9.99